Time;durP1;ratioP1;P1;durP2;ratioP2;P2;SDS_P1;SDS_P2;PMS_P1;PMS_P2;Temp;Humidity;BMP_temperature;BMP_pressure;BME280_temperature;BME280_humidity;BME280_pressure;Samples;Min_cycle;Max_cycle;Signal;HPM_P1;HPM_P2
2021/08/02 00:01:42;;;;;;;4.63;2.92;;;17.90;99.90;;;;;;4143386;28;20096;-70
2021/08/02 00:03:51;;;;;;;4.60;3.42;;;17.90;99.90;;;;;;4126231;28;20528;-70
2021/08/02 00:05:57;;;;;;;9.18;3.47;;;17.80;99.90;;;;;;4143693;28;20544;-70
2021/08/02 00:08:00;;;;;;;4.88;3.20;;;17.80;99.90;;;;;;4143094;28;20083;-70
2021/08/02 00:10:07;;;;;;;3.50;2.63;;;17.80;99.90;;;;;;4119817;28;20047;-70
2021/08/02 00:12:16;;;;;;;4.90;2.88;;;17.80;99.90;;;;;;4126450;28;20403;-70
2021/08/02 00:14:18;;;;;;;5.57;3.00;;;17.80;99.90;;;;;;4144010;28;20045;-70
2021/08/02 00:16:18;;;;;;;6.13;3.22;;;17.80;99.90;;;;;;4143907;28;20033;-70
2021/08/02 00:18:19;;;;;;;4.55;3.20;;;17.80;99.90;;;;;;4145810;28;20041;-70
2021/08/02 00:20:26;;;;;;;4.50;2.92;;;17.80;99.90;;;;;;4144123;28;20034;-70
2021/08/02 00:22:27;;;;;;;5.28;3.13;;;17.70;99.90;;;;;;4143133;28;20042;-70
2021/08/02 00:24:28;;;;;;;4.30;2.92;;;17.70;99.90;;;;;;4143382;28;20396;-70
2021/08/02 00:26:29;;;;;;;7.07;2.90;;;17.70;99.90;;;;;;4143919;28;20041;-70
2021/08/02 00:28:31;;;;;;;4.40;2.95;;;17.70;99.90;;;;;;4143341;28;20498;-70
2021/08/02 00:30:33;;;;;;;8.68;2.53;;;17.60;99.90;;;;;;4126412;28;20129;-70
2021/08/02 00:32:36;;;;;;;7.43;2.50;;;17.50;99.90;;;;;;4126033;28;20027;-70
2021/08/02 00:34:36;;;;;;;8.07;2.78;;;17.50;99.90;;;;;;4144109;28;20034;-70
2021/08/02 00:36:44;;;;;;;5.15;2.60;;;17.50;99.90;;;;;;4143382;28;20045;-70
2021/08/02 00:38:49;;;;;;;5.35;2.50;;;17.40;99.90;;;;;;4142231;28;20038;-70
2021/08/02 00:41:11;;;;;;;6.82;2.10;;;17.40;99.90;;;;;;4143628;28;20030;-70
2021/08/02 00:43:53;;;;;;;4.85;2.10;;;17.30;99.90;;;;;;4127297;28;20042;-70
2021/08/02 00:45:53;;;;;;;4.65;1.85;;;17.30;99.90;;;;;;4116986;28;20042;-70
2021/08/02 00:47:58;;;;;;;4.80;2.00;;;17.40;99.90;;;;;;4142893;28;20495;-70
2021/08/02 00:50:13;;;;;;;5.57;2.15;;;17.30;99.90;;;;;;4125858;28;20487;-70
2021/08/02 00:52:14;;;;;;;6.47;2.15;;;17.30;99.90;;;;;;4143126;28;20573;-70
2021/08/02 00:54:16;;;;;;;1.95;1.70;;;17.30;99.90;;;;;;4125566;28;20041;-70
2021/08/02 00:56:18;;;;;;;2.42;1.90;;;17.30;99.90;;;;;;4143030;28;20053;-70
2021/08/02 00:58:20;;;;;;;3.40;1.98;;;17.30;99.90;;;;;;4143419;28;20092;-70
2021/08/02 01:00:21;;;;;;;2.85;1.70;;;17.40;99.90;;;;;;4144536;28;20038;-70
2021/08/02 01:02:24;;;;;;;5.93;2.00;;;17.40;99.90;;;;;;4125127;28;20035;-70
2021/08/02 01:04:24;;;;;;;;;;;17.40;99.90;;;;;;4152568;28;20378;-70
2021/08/02 01:06:30;;;;;;;3.67;2.10;;;17.40;99.90;;;;;;4144192;28;20008;-70
2021/08/02 01:08:32;;;;;;;2.25;1.65;;;17.40;99.90;;;;;;4124869;28;20061;-70
2021/08/02 01:10:35;;;;;;;3.37;1.90;;;17.40;99.90;;;;;;4142980;28;20126;-70
2021/08/02 01:12:37;;;;;;;4.30;1.80;;;17.40;99.90;;;;;;4141886;28;20052;-70
2021/08/02 01:14:39;;;;;;;3.85;1.67;;;17.40;99.90;;;;;;4126219;28;20045;-70
2021/08/02 01:16:40;;;;;;;3.25;1.67;;;17.40;99.90;;;;;;4125561;28;20443;-70
2021/08/02 01:18:43;;;;;;;7.25;1.65;;;17.40;99.90;;;;;;4142144;28;20056;-70
2021/08/02 01:20:47;;;;;;;;;;;17.40;99.90;;;;;;4150860;28;20038;-70
2021/08/02 01:22:49;;;;;;;2.58;1.60;;;17.40;99.90;;;;;;4142525;28;19956;-70
2021/08/02 01:24:50;;;;;;;3.50;1.75;;;17.40;99.90;;;;;;4143508;28;20037;-70
2021/08/02 01:27:42;;;;;;;4.97;1.90;;;17.40;99.90;;;;;;4143123;28;20394;-70
2021/08/02 01:30:33;;;;;;;4.47;1.83;;;17.40;99.90;;;;;;4117057;28;20399;-70
2021/08/02 01:32:34;;;;;;;3.05;2.13;;;17.50;99.90;;;;;;4053010;28;20076;-70
2021/08/02 01:34:35;;;;;;;5.53;2.55;;;17.40;99.90;;;;;;4109820;28;20493;-70
2021/08/02 01:36:35;;;;;;;3.95;1.90;;;17.50;99.90;;;;;;4124668;28;20053;-70
2021/08/02 01:38:36;;;;;;;2.78;1.80;;;17.40;99.90;;;;;;4142290;28;20064;-70
2021/08/02 01:40:37;;;;;;;6.00;2.08;;;17.40;99.90;;;;;;4125507;28;20038;-70
2021/08/02 01:42:39;;;;;;;4.75;2.33;;;17.50;99.90;;;;;;4141949;28;20096;-70
2021/08/02 01:44:40;;;;;;;4.03;2.25;;;17.50;99.90;;;;;;4144760;28;20041;-70
2021/08/02 01:47:10;;;;;;;4.68;2.40;;;17.50;99.90;;;;;;4142817;28;20026;-71
2021/08/02 01:49:27;;;;;;;6.35;2.55;;;17.50;99.90;;;;;;4118745;28;20037;-70
2021/08/02 01:51:37;;;;;;;6.25;2.83;;;17.60;99.90;;;;;;4124370;28;20403;-70
2021/08/02 01:54:05;;;;;;;4.18;2.30;;;17.60;99.90;;;;;;4115937;28;20426;-71
2021/08/02 01:56:21;;;;;;;6.35;2.40;;;17.60;99.90;;;;;;4142878;28;20132;-70
2021/08/02 01:58:22;;;;;;;4.20;2.25;;;17.60;99.90;;;;;;4142689;28;20041;-71
2021/08/02 02:00:23;;;;;;;7.90;2.22;;;17.60;99.90;;;;;;4131791;28;20044;-70
2021/08/02 02:02:26;;;;;;;3.70;2.35;;;17.60;99.90;;;;;;4124745;28;20046;-71
2021/08/02 02:04:47;;;;;;;3.35;2.65;;;17.60;99.90;;;;;;4125555;28;20042;-70
2021/08/02 02:06:52;;;;;;;3.88;2.40;;;17.60;99.90;;;;;;4141992;28;20119;-71
2021/08/02 02:09:01;;;;;;;4.13;2.70;;;17.60;99.90;;;;;;4142272;28;20045;-71
2021/08/02 02:11:03;;;;;;;3.60;2.50;;;17.70;99.90;;;;;;4142380;28;20030;-70
2021/08/02 02:13:05;;;;;;;4.85;2.78;;;17.60;99.90;;;;;;4142377;28;20058;-71
2021/08/02 02:15:06;;;;;;;4.40;2.47;;;17.70;99.90;;;;;;4129507;28;20041;-70
2021/08/02 02:17:09;;;;;;;5.88;2.28;;;17.60;99.90;;;;;;4143673;28;20038;-71
2021/08/02 02:19:11;;;;;;;4.35;2.38;;;17.70;99.90;;;;;;4124461;28;20042;-71
2021/08/02 02:21:12;;;;;;;4.60;2.22;;;17.70;99.90;;;;;;4124945;28;20576;-70
2021/08/02 02:23:15;;;;;;;4.00;2.60;;;17.70;99.90;;;;;;4123427;28;20089;-70
2021/08/02 02:25:16;;;;;;;4.05;2.33;;;17.70;99.90;;;;;;4147052;28;20113;-71
2021/08/02 02:27:18;;;;;;;3.10;2.80;;;17.70;99.90;;;;;;4129792;28;20415;-70
2021/08/02 02:29:20;;;;;;;3.75;2.35;;;17.70;99.90;;;;;;4123743;28;20046;-71
2021/08/02 02:31:23;;;;;;;4.95;2.60;;;17.70;99.90;;;;;;4142013;28;20030;-71
2021/08/02 02:33:24;;;;;;;4.68;2.92;;;17.70;99.90;;;;;;4141905;28;20034;-70
2021/08/02 02:35:26;;;;;;;5.22;2.30;;;17.70;99.90;;;;;;4124405;28;20031;-71
2021/08/02 02:37:27;;;;;;;3.90;2.75;;;17.70;99.90;;;;;;4141751;28;20037;-71
2021/08/02 02:39:29;;;;;;;2.47;2.28;;;17.70;99.90;;;;;;4141278;28;20442;-71
2021/08/02 02:41:32;;;;;;;3.40;2.33;;;17.70;99.90;;;;;;4149738;28;20041;-71
2021/08/02 02:43:33;;;;;;;4.22;2.67;;;17.70;99.90;;;;;;4141893;28;20681;-71
2021/08/02 02:45:35;;;;;;;4.88;2.70;;;17.70;99.90;;;;;;4127673;28;20088;-71
2021/08/02 02:47:36;;;;;;;4.75;2.55;;;17.70;99.90;;;;;;4124140;28;20503;-71
2021/08/02 02:49:39;;;;;;;3.70;2.47;;;17.70;99.90;;;;;;4134793;28;20026;-71
2021/08/02 02:51:40;;;;;;;5.53;2.55;;;17.70;99.90;;;;;;4134435;28;20034;-71
2021/08/02 02:53:41;;;;;;;2.80;2.33;;;17.70;99.90;;;;;;4135834;28;20088;-71
2021/08/02 02:55:43;;;;;;;4.90;3.30;;;17.60;99.90;;;;;;4132817;28;20034;-71
2021/08/02 02:57:44;;;;;;;3.85;2.58;;;17.60;99.90;;;;;;4133418;28;20584;-71
2021/08/02 02:59:45;;;;;;;5.60;2.67;;;17.70;99.90;;;;;;4134254;28;20064;-71
2021/08/02 03:01:49;;;;;;;4.35;3.00;;;17.60;99.90;;;;;;4119373;28;20109;-71
2021/08/02 03:03:52;;;;;;;3.85;2.97;;;17.70;99.90;;;;;;4134122;28;20461;-71
2021/08/02 03:05:52;;;;;;;5.15;2.35;;;17.60;99.90;;;;;;4145713;28;20025;-71
2021/08/02 03:07:58;;;;;;;3.60;2.42;;;17.60;99.90;;;;;;4129020;28;20045;-71
2021/08/02 03:10:00;;;;;;;2.95;2.65;;;17.60;99.90;;;;;;4140880;28;20030;-71
2021/08/02 03:12:01;;;;;;;5.43;3.08;;;17.70;99.90;;;;;;4144166;28;20544;-71
2021/08/02 03:14:01;;;;;;;5.20;2.78;;;17.60;99.90;;;;;;4140916;28;20034;-71
2021/08/02 03:16:02;;;;;;;3.65;2.50;;;17.70;99.90;;;;;;4124202;28;20533;-71
2021/08/02 03:18:02;;;;;;;7.45;2.78;;;17.70;99.90;;;;;;4133642;28;20107;-71
2021/08/02 03:20:03;;;;;;;5.35;2.92;;;17.70;99.90;;;;;;4134992;28;20046;-71
2021/08/02 03:22:18;;;;;;;4.63;2.90;;;17.70;99.90;;;;;;4137568;28;20092;-71
2021/08/02 03:24:27;;;;;;;4.95;3.15;;;17.70;99.90;;;;;;4136669;28;20096;-71
2021/08/02 03:26:33;;;;;;;4.60;2.85;;;17.70;99.90;;;;;;4122359;28;20576;-71
2021/08/02 03:28:37;;;;;;;6.55;3.00;;;17.70;99.90;;;;;;4131176;28;20457;-71
2021/08/02 03:30:39;;;;;;;6.70;3.03;;;17.70;99.90;;;;;;4123457;28;20434;-71
2021/08/02 03:32:44;;;;;;;5.53;2.65;;;17.70;99.90;;;;;;4140616;28;20414;-71
2021/08/02 03:34:54;;;;;;;5.15;2.95;;;17.70;99.90;;;;;;4143799;28;20034;-71
2021/08/02 03:36:56;;;;;;;3.95;3.05;;;17.70;99.90;;;;;;4146004;28;20037;-71
2021/08/02 03:38:58;;;;;;;5.40;2.97;;;17.70;99.90;;;;;;4146669;28;20064;-71
2021/08/02 03:41:00;;;;;;;5.38;3.05;;;17.70;99.90;;;;;;4146551;28;20469;-71
2021/08/02 03:43:00;;;;;;;3.42;3.03;;;17.70;99.90;;;;;;4141998;28;20331;-71
2021/08/02 03:45:03;;;;;;;3.15;2.83;;;17.70;99.90;;;;;;4138728;28;20044;-71
2021/08/02 03:47:04;;;;;;;3.28;2.92;;;17.70;99.90;;;;;;4138064;28;20410;-71
2021/08/02 03:49:04;;;;;;;3.60;2.78;;;17.70;99.90;;;;;;4105256;28;20039;-71
2021/08/02 03:51:05;;;;;;;5.18;3.20;;;17.70;99.90;;;;;;4139225;28;20496;-71
2021/08/02 03:53:06;;;;;;;6.65;2.90;;;17.70;99.90;;;;;;4140155;28;20038;-71
2021/08/02 03:55:09;;;;;;;3.38;2.60;;;17.70;99.90;;;;;;4138274;28;20124;-71
2021/08/02 03:57:11;;;;;;;4.97;2.85;;;17.60;99.90;;;;;;4122692;28;20030;-71
2021/08/02 03:59:12;;;;;;;11.67;3.60;;;17.60;99.90;;;;;;4138395;28;20042;-71
2021/08/02 04:01:12;;;;;;;6.28;3.25;;;17.60;99.90;;;;;;4139820;28;20533;-71
2021/08/02 04:03:13;;;;;;;4.38;3.17;;;17.60;99.90;;;;;;4126593;28;20036;-71
2021/08/02 04:05:13;;;;;;;4.85;3.03;;;17.70;99.90;;;;;;4138541;28;20030;-71
2021/08/02 04:07:14;;;;;;;4.82;2.67;;;17.70;99.90;;;;;;4139225;28;20034;-71
2021/08/02 04:09:15;;;;;;;3.85;3.13;;;17.70;99.90;;;;;;4138555;28;20100;-71
2021/08/02 04:11:15;;;;;;;5.20;3.17;;;17.70;99.90;;;;;;4121253;28;20106;-71
2021/08/02 04:13:17;;;;;;;7.13;2.90;;;17.60;99.90;;;;;;4145899;28;20041;-71
2021/08/02 04:15:18;;;;;;;4.10;2.72;;;17.70;99.90;;;;;;4128951;28;20030;-71
2021/08/02 04:17:18;;;;;;;5.22;2.97;;;17.70;99.90;;;;;;4134586;28;20042;-71
2021/08/02 04:19:19;;;;;;;4.80;3.30;;;17.60;99.90;;;;;;4146648;28;20809;-71
2021/08/02 04:21:20;;;;;;;4.65;3.22;;;17.70;99.90;;;;;;4146163;28;20034;-71
2021/08/02 04:23:21;;;;;;;5.43;3.38;;;17.70;99.90;;;;;;4130973;28;20278;-71
2021/08/02 04:25:21;;;;;;;4.10;3.10;;;17.70;99.90;;;;;;4145846;28;20117;-71
2021/08/02 04:27:22;;;;;;;4.28;3.00;;;17.70;99.90;;;;;;4151617;28;20095;-71
2021/08/02 04:29:22;;;;;;;6.13;3.20;;;17.60;99.90;;;;;;4150755;28;20222;-71
2021/08/02 04:31:29;;;;;;;3.47;2.72;;;17.60;99.90;;;;;;4145799;28;20471;-71
2021/08/02 04:33:30;;;;;;;5.57;3.00;;;17.70;99.90;;;;;;4134311;28;20553;-71
2021/08/02 04:35:31;;;;;;;5.45;2.97;;;17.70;99.90;;;;;;4128496;28;20042;-70
2021/08/02 04:37:31;;;;;;;5.25;3.17;;;17.70;99.90;;;;;;4111700;28;20550;-71
2021/08/02 04:39:32;;;;;;;5.82;3.70;;;17.60;99.90;;;;;;4145561;28;20505;-71
2021/08/02 04:41:32;;;;;;;4.43;3.15;;;17.60;99.90;;;;;;4145612;28;20041;-71
2021/08/02 04:43:33;;;;;;;7.28;3.55;;;17.60;99.90;;;;;;4137254;28;20472;-71
2021/08/02 04:45:34;;;;;;;6.05;3.33;;;17.60;99.90;;;;;;4145302;28;20486;-71
2021/08/02 04:47:34;;;;;;;5.68;3.22;;;17.60;99.90;;;;;;4141983;28;20113;-71
2021/08/02 04:49:35;;;;;;;5.00;3.20;;;17.60;99.90;;;;;;4137919;28;20054;-71
2021/08/02 04:51:35;;;;;;;5.15;3.22;;;17.60;99.90;;;;;;4143012;28;20042;-71
2021/08/02 04:53:36;;;;;;;3.72;3.33;;;17.60;99.90;;;;;;4143849;28;20101;-71
2021/08/02 04:55:37;;;;;;;5.20;3.35;;;17.60;99.90;;;;;;4144070;28;20022;-71
2021/08/02 04:57:37;;;;;;;6.72;3.22;;;17.60;99.90;;;;;;4143307;28;20057;-71
2021/08/02 04:59:39;;;;;;;5.80;3.38;;;17.60;99.90;;;;;;4126271;28;20475;-71
2021/08/02 05:01:40;;;;;;;5.80;3.72;;;17.60;99.90;;;;;;4125856;28;20109;-71
2021/08/02 05:03:41;;;;;;;4.75;3.13;;;17.60;99.90;;;;;;4109492;28;20035;-71
2021/08/02 05:05:41;;;;;;;3.92;3.00;;;17.60;99.90;;;;;;4143324;28;20030;-71
2021/08/02 05:07:42;;;;;;;6.55;3.08;;;17.60;99.90;;;;;;4109747;28;20041;-71
2021/08/02 05:09:42;;;;;;;7.20;3.50;;;17.60;99.90;;;;;;4142398;28;20088;-71
2021/08/02 05:11:43;;;;;;;6.40;3.67;;;17.60;99.90;;;;;;4143416;28;20026;-71
2021/08/02 05:13:43;;;;;;;14.73;4.53;;;17.50;99.90;;;;;;4136585;28;20038;-71
2021/08/02 05:15:44;;;;;;;5.28;3.55;;;17.50;99.90;;;;;;4159193;28;20086;-71
2021/08/02 05:17:45;;;;;;;6.53;3.67;;;17.50;99.90;;;;;;4148228;28;20038;-71
2021/08/02 05:19:46;;;;;;;5.25;3.30;;;17.50;99.90;;;;;;4142752;28;20188;-71
2021/08/02 05:21:46;;;;;;;5.45;3.17;;;17.50;99.90;;;;;;4125491;28;20031;-71
2021/08/02 05:23:47;;;;;;;7.60;4.35;;;17.50;99.90;;;;;;4124421;28;20325;-71
2021/08/02 05:25:47;;;;;;;6.43;3.80;;;17.50;99.90;;;;;;4129796;28;20118;-71
2021/08/02 05:27:50;;;;;;;6.65;4.00;;;17.60;99.90;;;;;;4134554;28;20049;-71
2021/08/02 05:29:50;;;;;;;7.40;3.95;;;17.50;99.90;;;;;;4113145;28;20479;-71
2021/08/02 05:31:51;;;;;;;5.28;3.50;;;17.60;99.90;;;;;;4134770;28;20037;-71
2021/08/02 05:33:52;;;;;;;6.10;3.67;;;17.60;99.90;;;;;;4122252;28;20041;-71
2021/08/02 05:35:52;;;;;;;6.72;3.88;;;17.60;99.90;;;;;;4116435;28;20026;-71
2021/08/02 05:37:53;;;;;;;6.90;4.53;;;17.60;99.90;;;;;;4120233;28;20062;-71
2021/08/02 05:39:54;;;;;;;7.22;4.45;;;17.60;99.90;;;;;;4130480;28;20046;-71
2021/08/02 05:41:55;;;;;;;9.48;4.70;;;17.50;99.90;;;;;;4130566;28;20384;-72
2021/08/02 05:43:55;;;;;;;9.93;4.50;;;17.50;99.90;;;;;;4110763;28;20125;-73
2021/08/02 05:45:56;;;;;;;9.80;4.63;;;17.50;99.90;;;;;;4133202;28;20307;-71
2021/08/02 05:47:57;;;;;;;5.68;4.47;;;17.40;99.90;;;;;;4120783;28;20046;-71
2021/08/02 05:49:58;;;;;;;7.35;3.92;;;17.50;99.90;;;;;;4135011;28;20038;-71
2021/08/02 05:52:00;;;;;;;5.25;4.03;;;17.50;99.90;;;;;;4115004;28;20034;-71
2021/08/02 05:54:01;;;;;;;;;;;17.50;99.90;;;;;;4129899;28;20452;-71
2021/08/02 05:56:01;;;;;;;5.65;3.88;;;17.50;99.90;;;;;;4129231;28;19913;-71
2021/08/02 05:58:02;;;;;;;6.55;4.55;;;17.40;99.90;;;;;;4111264;28;20531;-71
2021/08/02 06:00:05;;;;;;;8.25;4.22;;;17.40;99.90;;;;;;4130932;28;20030;-71
2021/08/02 06:02:05;;;;;;;;;;;17.40;99.90;;;;;;4115801;28;20162;-71
2021/08/02 06:04:06;;;;;;;6.50;3.88;;;17.40;99.90;;;;;;4139488;28;20345;-71
2021/08/02 06:06:06;;;;;;;7.53;4.15;;;17.40;99.90;;;;;;4133026;28;20052;-71
2021/08/02 06:08:07;;;;;;;9.10;4.10;;;17.40;99.90;;;;;;4132227;28;20124;-71
2021/08/02 06:10:10;;;;;;;4.80;3.72;;;17.40;99.90;;;;;;4132629;28;20482;-71
2021/08/02 06:12:11;;;;;;;7.80;4.20;;;17.40;99.90;;;;;;4135952;28;20184;-71
2021/08/02 06:14:11;;;;;;;5.30;3.97;;;17.50;99.90;;;;;;4131980;28;20049;-71
2021/08/02 06:16:14;;;;;;;6.60;4.03;;;17.40;99.90;;;;;;4139812;28;20132;-71
2021/08/02 06:18:14;;;;;;;7.63;5.30;;;17.50;99.90;;;;;;4111640;28;20149;-71
2021/08/02 06:20:15;;;;;;;10.65;4.68;;;17.50;99.90;;;;;;4137364;28;20082;-71
2021/08/02 06:22:16;;;;;;;9.68;4.20;;;17.50;99.90;;;;;;4116424;28;20050;-71
2021/08/02 06:24:16;;;;;;;6.32;4.43;;;17.50;99.90;;;;;;4132995;28;20112;-71
2021/08/02 06:26:17;;;;;;;5.85;4.22;;;17.50;99.90;;;;;;4129955;28;20398;-71
2021/08/02 06:28:17;;;;;;;6.78;3.80;;;17.50;99.90;;;;;;4108831;28;20030;-71
2021/08/02 06:30:19;;;;;;;5.20;4.03;;;17.50;99.90;;;;;;4125393;28;20031;-70
2021/08/02 06:32:19;;;;;;;6.57;4.10;;;17.60;99.90;;;;;;4127509;28;20037;-70
2021/08/02 06:34:20;;;;;;;9.38;4.97;;;17.50;99.90;;;;;;4136374;28;20491;-71
2021/08/02 06:36:21;;;;;;;7.13;4.82;;;17.60;99.90;;;;;;4112950;28;20664;-71
2021/08/02 06:38:22;;;;;;;10.50;5.72;;;17.50;99.90;;;;;;4136001;28;20418;-71
2021/08/02 06:40:22;;;;;;;9.60;5.00;;;17.50;99.90;;;;;;4139896;28;20049;-70
2021/08/02 06:42:23;;;;;;;7.40;4.53;;;17.40;99.90;;;;;;4125455;28;20064;-71
2021/08/02 06:44:23;;;;;;;8.05;4.90;;;17.40;99.90;;;;;;4126122;28;20117;-71
2021/08/02 06:46:24;;;;;;;10.93;4.78;;;17.40;99.90;;;;;;4125449;28;20053;-71
2021/08/02 06:48:24;;;;;;;6.20;4.35;;;17.40;99.90;;;;;;4134598;28;20042;-71
2021/08/02 06:50:25;;;;;;;11.35;4.53;;;17.40;99.90;;;;;;4135232;28;20125;-71
2021/08/02 06:52:26;;;;;;;7.18;4.72;;;17.30;99.90;;;;;;4114566;28;20042;-71
2021/08/02 06:54:26;;;;;;;9.25;4.82;;;17.30;99.90;;;;;;4138436;28;20486;-71
2021/08/02 06:56:27;;;;;;;9.82;4.65;;;17.30;99.90;;;;;;4132079;28;20096;-70
2021/08/02 06:58:27;;;;;;;5.97;3.55;;;17.30;99.90;;;;;;4133664;28;20044;-70
2021/08/02 07:00:28;;;;;;;4.78;3.45;;;17.30;99.90;;;;;;4128858;28;20495;-71
2021/08/02 07:02:29;;;;;;;4.57;3.47;;;17.30;99.90;;;;;;4134652;28;20088;-70
2021/08/02 07:04:29;;;;;;;7.47;3.53;;;17.30;99.90;;;;;;4111144;28;20106;-71
2021/08/02 07:06:30;;;;;;;5.90;2.95;;;17.40;99.90;;;;;;4112889;28;20042;-70
2021/08/02 07:08:30;;;;;;;4.15;3.22;;;17.40;99.90;;;;;;4114212;28;20038;-71
2021/08/02 07:10:31;;;;;;;8.85;4.45;;;17.40;99.90;;;;;;4139622;28;20054;-71
2021/08/02 07:12:32;;;;;;;7.72;3.97;;;17.40;99.90;;;;;;4131203;28;20062;-71
2021/08/02 07:14:32;;;;;;;6.97;4.10;;;17.40;99.90;;;;;;4125745;28;20035;-70
2021/08/02 07:16:33;;;;;;;8.63;4.20;;;17.40;99.90;;;;;;4118937;28;20117;-70
2021/08/02 07:18:34;;;;;;;5.88;3.22;;;17.40;99.90;;;;;;4135743;28;20045;-71
2021/08/02 07:20:35;;;;;;;5.05;3.20;;;17.40;99.90;;;;;;4114615;28;20190;-71
2021/08/02 07:22:35;;;;;;;5.70;3.13;;;17.40;99.90;;;;;;4133647;28;20043;-71
2021/08/02 07:24:36;;;;;;;4.13;3.15;;;17.40;99.90;;;;;;4119325;28;20049;-70
2021/08/02 07:26:36;;;;;;;4.05;2.80;;;17.50;99.90;;;;;;4121279;28;20037;-70
2021/08/02 07:28:37;;;;;;;4.93;3.10;;;17.50;99.90;;;;;;4129919;28;20058;-71
2021/08/02 07:30:37;;;;;;;7.53;3.13;;;17.50;99.90;;;;;;4134147;28;20038;-71
2021/08/02 07:32:38;;;;;;;10.57;3.20;;;17.50;99.90;;;;;;4131072;28;20045;-70
2021/08/02 07:34:39;;;;;;;5.68;2.85;;;17.50;99.90;;;;;;4115051;28;20030;-71
2021/08/02 07:36:39;;;;;;;4.72;2.85;;;17.60;99.90;;;;;;4115998;28;20506;-71
2021/08/02 07:38:41;;;;;;;4.45;2.90;;;17.60;99.90;;;;;;4126116;28;20113;-71
2021/08/02 07:40:41;;;;;;;7.18;3.35;;;17.60;99.90;;;;;;4139038;28;20069;-71
2021/08/02 07:42:42;;;;;;;5.55;3.03;;;17.60;99.90;;;;;;4130783;28;20052;-71
2021/08/02 07:44:43;;;;;;;4.88;2.97;;;17.60;99.90;;;;;;4130733;28;20402;-70
2021/08/02 07:46:43;;;;;;;2.97;2.55;;;17.60;99.90;;;;;;4136069;28;20043;-71
2021/08/02 07:48:44;;;;;;;3.85;2.95;;;17.60;99.90;;;;;;4140561;28;20034;-71
2021/08/02 07:50:45;;;;;;;5.75;3.00;;;17.70;99.90;;;;;;4135338;28;20042;-70
2021/08/02 07:52:45;;;;;;;6.15;3.17;;;17.70;99.90;;;;;;4117213;28;20031;-70
2021/08/02 07:54:46;;;;;;;5.95;3.15;;;17.70;99.90;;;;;;4125699;28;20032;-70
2021/08/02 07:56:46;;;;;;;4.32;3.10;;;17.70;99.90;;;;;;4127380;28;20038;-71
2021/08/02 07:58:47;;;;;;;6.07;3.20;;;17.70;99.90;;;;;;4110901;28;20125;-71
2021/08/02 08:00:48;;;;;;;5.10;3.10;;;17.70;99.90;;;;;;4135306;28;20035;-70
2021/08/02 08:02:49;;;;;;;6.20;3.38;;;17.70;99.90;;;;;;4133747;28;20494;-70
2021/08/02 08:04:49;;;;;;;6.53;3.10;;;17.70;99.90;;;;;;4113338;28;20348;-70
2021/08/02 08:06:50;;;;;;;5.40;3.10;;;17.70;99.90;;;;;;4111196;28;20113;-71
2021/08/02 08:08:51;;;;;;;4.63;3.20;;;17.70;99.90;;;;;;4131352;28;20034;-70
2021/08/02 08:10:52;;;;;;;3.92;3.25;;;17.70;99.90;;;;;;4130036;28;20115;-70
2021/08/02 08:12:54;;;;;;;9.70;3.22;;;17.70;99.90;;;;;;4130631;28;20299;-71
2021/08/02 08:14:54;;;;;;;4.55;2.72;;;17.70;99.90;;;;;;4131191;28;20050;-70
2021/08/02 08:16:55;;;;;;;5.47;3.35;;;17.70;99.90;;;;;;4125749;28;20506;-70
2021/08/02 08:18:56;;;;;;;6.53;2.95;;;17.70;99.90;;;;;;4129693;28;20042;-70
2021/08/02 08:20:59;;;;;;;3.78;2.55;;;17.70;99.90;;;;;;4141190;28;20450;-71
2021/08/02 08:22:59;;;;;;;3.55;2.70;;;17.70;99.90;;;;;;4140938;28;20486;-71
2021/08/02 08:25:01;;;;;;;5.07;3.03;;;17.70;99.90;;;;;;4132538;28;20054;-71
2021/08/02 08:27:01;;;;;;;6.05;3.13;;;17.70;99.90;;;;;;4128302;28;20729;-71
2021/08/02 08:29:06;;;;;;;5.03;2.95;;;17.70;99.90;;;;;;4131023;28;20094;-71
2021/08/02 08:31:06;;;;;;;6.22;3.30;;;17.70;99.90;;;;;;4132676;28;20062;-71
2021/08/02 08:33:07;;;;;;;5.15;2.85;;;17.80;99.90;;;;;;4130848;28;20046;-71
2021/08/02 08:35:09;;;;;;;4.80;3.08;;;17.70;99.90;;;;;;4132868;28;20062;-71
2021/08/02 08:37:10;;;;;;;6.65;3.38;;;17.80;99.90;;;;;;4122335;28;20134;-71
2021/08/02 08:39:11;;;;;;;5.65;3.00;;;17.80;99.90;;;;;;4117038;28;20502;-71
2021/08/02 08:41:13;;;;;;;4.20;2.63;;;17.70;99.90;;;;;;4138215;28;21043;-71
2021/08/02 08:43:16;;;;;;;4.53;2.50;;;17.80;99.90;;;;;;4110589;28;20476;-71
2021/08/02 08:45:17;;;;;;;6.20;3.58;;;17.80;99.90;;;;;;4117987;28;20545;-71
2021/08/02 08:47:18;;;;;;;4.43;2.60;;;17.90;99.90;;;;;;4127603;28;20034;-71
2021/08/02 08:49:18;;;;;;;2.78;1.92;;;17.90;99.90;;;;;;4095048;28;20514;-71
2021/08/02 08:51:20;;;;;;;2.85;2.15;;;18.00;99.90;;;;;;4117198;28;20030;-71
2021/08/02 08:53:21;;;;;;;4.07;2.40;;;18.00;99.90;;;;;;4130857;28;20465;-71
2021/08/02 08:55:21;;;;;;;4.03;2.25;;;18.10;99.90;;;;;;4110006;28;20101;-71
2021/08/02 08:57:22;;;;;;;3.47;2.40;;;18.10;99.90;;;;;;4113179;28;20057;-71
2021/08/02 08:59:23;;;;;;;4.18;2.33;;;18.20;99.90;;;;;;4141730;28;20128;-71
2021/08/02 09:01:30;;;;;;;3.15;2.00;;;18.20;99.90;;;;;;4130597;28;20030;-71
2021/08/02 09:03:32;;;;;;;4.32;2.20;;;18.30;99.90;;;;;;4133653;28;20131;-71
2021/08/02 09:05:34;;;;;;;4.00;2.03;;;18.30;99.90;;;;;;4136112;28;20034;-71
2021/08/02 09:07:39;;;;;;;3.70;1.80;;;18.40;99.90;;;;;;4140487;28;20042;-71
2021/08/02 09:09:40;;;;;;;4.05;1.90;;;18.40;99.90;;;;;;4133540;28;20044;-71
2021/08/02 09:11:41;;;;;;;4.32;2.17;;;18.40;99.90;;;;;;4126614;28;20050;-71
2021/08/02 09:13:41;;;;;;;3.80;1.92;;;18.50;99.90;;;;;;4102628;28;20124;-71
2021/08/02 09:15:44;;;;;;;5.10;2.10;;;18.60;99.90;;;;;;4127766;28;20041;-71
2021/08/02 09:17:44;;;;;;;3.53;1.48;;;18.60;99.90;;;;;;4116695;28;20093;-71
2021/08/02 09:19:45;;;;;;;2.33;1.20;;;18.60;99.90;;;;;;4136131;28;20073;-71
2021/08/02 09:21:49;;;;;;;1.70;1.25;;;18.70;99.90;;;;;;4112226;28;20051;-71
2021/08/02 09:23:52;;;;;;;4.20;1.55;;;18.80;99.90;;;;;;4132971;28;20048;-71
2021/08/02 09:25:55;;;;;;;3.08;1.23;;;18.80;99.90;;;;;;4131192;28;20085;-71
2021/08/02 09:27:55;;;;;;;1.60;1.20;;;18.80;99.90;;;;;;4133277;28;20050;-71
2021/08/02 09:29:56;;;;;;;4.50;1.70;;;18.90;99.90;;;;;;4134637;28;20037;-71
2021/08/02 09:31:57;;;;;;;3.03;1.42;;;18.90;99.90;;;;;;4129769;28;20046;-71
2021/08/02 09:34:03;;;;;;;2.80;1.00;;;18.90;99.90;;;;;;4110954;28;20106;-71
2021/08/02 09:36:03;;;;;;;2.42;0.90;;;18.90;99.90;;;;;;4132250;28;20031;-71
2021/08/02 09:38:09;;;;;;;2.83;1.35;;;19.00;99.90;;;;;;4126813;28;20272;-71
2021/08/02 09:40:10;;;;;;;3.65;1.20;;;19.00;99.90;;;;;;4133280;28;20038;-71
2021/08/02 09:42:11;;;;;;;2.63;1.08;;;19.10;99.90;;;;;;4132451;28;20046;-71
2021/08/02 09:44:23;;;;;;;2.63;1.17;;;19.10;99.90;;;;;;4116224;28;20034;-71
2021/08/02 09:46:24;;;;;;;2.30;1.33;;;19.00;99.90;;;;;;4126657;28;20034;-71
2021/08/02 09:48:37;;;;;;;2.60;1.35;;;19.10;99.90;;;;;;4126967;28;20037;-71
2021/08/02 09:50:38;;;;;;;2.08;1.27;;;19.10;99.90;;;;;;4121080;28;20038;-71
2021/08/02 09:52:50;;;;;;;3.10;1.63;;;19.10;99.90;;;;;;4128420;28;20042;-71
2021/08/02 09:55:00;;;;;;;6.68;1.52;;;19.20;99.90;;;;;;4133406;28;20034;-71
2021/08/02 09:57:01;;;;;;;3.15;1.77;;;19.30;99.90;;;;;;4142061;28;20034;-71
2021/08/02 09:59:02;;;;;;;5.70;2.13;;;19.30;99.90;;;;;;4128025;28;20045;-71
2021/08/02 10:01:03;;;;;;;5.65;1.52;;;19.30;99.90;;;;;;4115301;28;20035;-71
2021/08/02 10:03:03;;;;;;;2.15;1.08;;;19.30;99.90;;;;;;4129278;28;20038;-71
2021/08/02 10:05:04;;;;;;;2.38;1.02;;;19.30;99.90;;;;;;4109118;28;20447;-71
2021/08/02 10:07:09;;;;;;;2.60;1.20;;;19.40;99.90;;;;;;4111254;28;20030;-71
2021/08/02 10:09:13;;;;;;;4.25;1.30;;;19.40;99.90;;;;;;4133101;28;20125;-72
2021/08/02 10:11:14;;;;;;;3.65;1.65;;;19.50;99.90;;;;;;4138323;28;20034;-71
2021/08/02 10:13:44;;;;;;;4.22;1.63;;;19.50;99.90;;;;;;4126862;28;20041;-72
2021/08/02 10:15:55;;;;;;;2.75;1.30;;;19.60;99.90;;;;;;4088533;28;20034;-72
2021/08/02 10:18:01;;;;;;;5.93;1.52;;;19.60;99.90;;;;;;4131179;28;20107;-72
2021/08/02 10:20:04;;;;;;;3.28;1.40;;;19.60;99.90;;;;;;4131906;28;20034;-72
2021/08/02 10:22:05;;;;;;;2.03;1.00;;;19.70;99.90;;;;;;4110951;28;20135;-72
2021/08/02 10:24:09;;;;;;;2.20;1.20;;;19.70;99.90;;;;;;4127179;28;20035;-72
2021/08/02 10:26:29;;;;;;;2.97;1.10;;;19.70;99.90;;;;;;4133137;28;20383;-72
2021/08/02 10:28:29;;;;;;;2.22;1.15;;;19.80;99.90;;;;;;4139343;28;20478;-72
2021/08/02 10:30:30;;;;;;;3.65;1.45;;;19.80;99.90;;;;;;4126884;28;20019;-72
2021/08/02 10:32:35;;;;;;;4.15;1.25;;;19.80;99.90;;;;;;4110296;28;20027;-72
2021/08/02 10:34:36;;;;;;;3.13;1.70;;;19.80;99.90;;;;;;4126608;28;20034;-72
2021/08/02 10:36:36;;;;;;;4.82;1.50;;;19.80;99.90;;;;;;4127032;28;20552;-72
2021/08/02 10:38:42;;;;;;;2.28;1.23;;;19.80;99.90;;;;;;4116142;28;20043;-71
2021/08/02 10:40:52;;;;;;;4.63;1.65;;;19.80;99.90;;;;;;4127232;28;20105;-71